Penang International Airport Penang MY
ICAO: WMKP
IATA: PEN
Category: Medium
Scheduled Services: Yes

Elevation: 11 ft
TransAlt. 11000 ft.

Airport Communications:
ATIS:126.4
GND:121.6
:121.7

WMKP Zoom In..

Runways:

(A) RW 04 length 10997 ft width 151 ft
ILS 109.90 / hdg 42

(B) RW 22 length 10997 ft width 151 ft
---- / hdg 222

Location; WMKP
Day. 06 / Time. 22.30 Zulu
* QNH: 1008
* Temperature: 26° c. 78.8°f.
* Wind from: 000° Speed 00 kn.
Dewpoint: 25° c.
Visibility: 8000 m.
Clouds: Few 2500 ft.
No significant changes expected in the near future.

WMKP 062230Z 00000KT 8000 FEW025 26/25 Q1008 NOSIG


Wind - Calm.

 
 
jpsmedia worldairports.se 2020   terms of use